Time;durP1;ratioP1;P1;durP2;ratioP2;P2;SDS_P1;SDS_P2;PMS_P1;PMS_P2;Temp;Humidity;BMP_temperature;BMP_pressure;BME280_temperature;BME280_humidity;BME280_pressure;Samples;Min_cycle;Max_cycle;Signal;HPM_P1;HPM_P2
2023/06/22 00:00:27;;;;;;;9.83;8.83;;;;;;;22.54;100.00;101615.63;2065612;28;20202;-63
2023/06/22 00:01:28;;;;;;;9.70;8.73;;;;;;;22.49;100.00;101627.59;2058232;28;20664;-63
2023/06/22 00:02:28;;;;;;;11.47;8.13;;;;;;;22.42;100.00;101625.94;2064237;28;20194;-63
2023/06/22 00:03:29;;;;;;;9.43;8.40;;;;;;;22.37;100.00;101620.97;2065948;28;20217;-63
2023/06/22 00:04:29;;;;;;;9.73;8.17;;;;;;;22.39;100.00;101634.59;2065923;28;20201;-63
2023/06/22 00:05:29;;;;;;;9.10;8.20;;;;;;;22.37;100.00;101640.75;2065632;28;20255;-63
2023/06/22 00:06:30;;;;;;;9.57;8.67;;;;;;;22.24;100.00;101640.28;2066132;28;20189;-63
2023/06/22 00:07:30;;;;;;;11.03;9.20;;;;;;;22.21;100.00;101643.31;2065730;28;20566;-63
2023/06/22 00:08:31;;;;;;;14.67;9.30;;;;;;;22.17;100.00;101629.41;2066285;28;20230;-63
2023/06/22 00:09:32;;;;;;;9.60;8.60;;;;;;;22.30;100.00;101643.19;2066259;28;20206;-63
2023/06/22 00:10:33;;;;;;;9.73;8.73;;;;;;;21.88;100.00;101589.09;2065452;28;20198;-64
2023/06/22 00:11:33;;;;;;;10.10;8.43;;;;;;;22.32;100.00;101641.44;2066004;28;20426;-63
2023/06/22 00:12:34;;;;;;;10.43;8.40;;;;;;;22.38;100.00;101647.19;2065419;28;20606;-63
2023/06/22 00:13:34;;;;;;;9.50;8.17;;;;;;;22.39;100.00;101648.72;2062536;28;20191;-63
2023/06/22 00:14:35;;;;;;;12.10;7.70;;;;;;;22.40;100.00;101641.81;2060170;28;20266;-63
2023/06/22 00:15:37;;;;;;;9.73;7.97;;;;;;;22.44;100.00;101646.03;2065265;28;20675;-63
2023/06/22 00:16:38;;;;;;;9.37;8.10;;;;;;;22.43;100.00;101641.63;2065770;28;20178;-63
2023/06/22 00:17:38;;;;;;;10.33;8.80;;;;;;;22.42;100.00;101645.69;2066231;28;20178;-63
2023/06/22 00:18:38;;;;;;;9.83;8.40;;;;;;;22.41;100.00;101640.56;2064986;28;20201;-63
2023/06/22 00:19:40;;;;;;;9.27;8.07;;;;;;;22.42;100.00;101639.28;2065370;28;20190;-63
2023/06/22 00:20:42;;;;;;;9.17;8.27;;;;;;;22.45;100.00;101638.31;2065549;28;20205;-63
2023/06/22 00:21:42;;;;;;;11.13;8.00;;;;;;;22.41;100.00;101620.78;2065909;28;20182;-64
2023/06/22 00:22:43;;;;;;;9.10;8.20;;;;;;;22.48;100.00;101631.69;2065105;28;20205;-63
2023/06/22 00:23:44;;;;;;;12.07;8.60;;;;;;;22.42;100.00;101616.69;2065659;28;20541;-63
2023/06/22 00:24:44;;;;;;;9.70;7.67;;;;;;;22.48;100.00;101638.16;2065763;28;20269;-63
2023/06/22 00:25:45;;;;;;;9.17;8.27;;;;;;;22.48;100.00;101629.66;2066215;28;20181;-63
2023/06/22 00:26:45;;;;;;;9.97;8.40;;;;;;;22.48;100.00;101621.19;2065783;28;20194;-63
2023/06/22 00:27:46;;;;;;;11.83;7.90;;;;;;;22.50;100.00;101626.31;2065897;28;20186;-63
2023/06/22 00:28:47;;;;;;;11.00;8.60;;;;;;;22.51;100.00;101633.56;2059887;28;20218;-63
2023/06/22 00:29:47;;;;;;;10.30;8.70;;;;;;;22.51;100.00;101633.56;2062043;28;20644;-62
2023/06/22 00:30:51;;;;;;;10.17;8.23;;;;;;;22.50;100.00;101638.41;2063767;28;20819;-63
2023/06/22 00:31:51;;;;;;;10.40;8.10;;;;;;;22.52;100.00;101646.41;2064674;28;20179;-63
2023/06/22 00:32:51;;;;;;;11.27;7.87;;;;;;;22.53;100.00;101647.97;2065360;28;20504;-63
2023/06/22 00:33:52;;;;;;;9.40;7.97;;;;;;;22.52;100.00;101641.53;2065938;28;20178;-63
2023/06/22 00:34:52;;;;;;;8.67;7.67;;;;;;;22.53;100.00;101650.78;2065948;28;20166;-63
2023/06/22 00:35:53;;;;;;;8.53;7.63;;;;;;;22.51;100.00;101651.28;2065557;28;20716;-63
2023/06/22 00:36:54;;;;;;;8.07;7.27;;;;;;;22.42;100.00;101642.13;2065573;28;20197;-63
2023/06/22 00:38:00;;;;;;;9.67;8.67;;;;;;;22.41;100.00;101661.09;2066013;28;20527;-63
2023/06/22 00:39:01;;;;;;;10.43;8.77;;;;;;;21.68;100.00;101569.22;2065580;28;20206;-63
2023/06/22 00:40:03;;;;;;;11.77;8.30;;;;;;;21.71;100.00;101588.03;2065752;28;20476;-63
2023/06/22 00:41:03;;;;;;;9.03;7.77;;;;;;;22.09;100.00;101648.00;2065448;28;20325;-63
2023/06/22 00:42:04;;;;;;;9.80;8.30;;;;;;;22.04;100.00;101642.22;2064641;28;20560;-64
2023/06/22 00:43:05;;;;;;;10.63;8.70;;;;;;;22.17;100.00;101662.50;2065367;28;20174;-63
2023/06/22 00:44:08;;;;;;;10.47;8.63;;;;;;;22.16;100.00;101661.69;2065752;28;20448;-63
2023/06/22 00:45:09;;;;;;;10.17;8.17;;;;;;;22.20;100.00;101658.66;2065494;28;21014;-63
2023/06/22 00:46:09;;;;;;;9.20;8.23;;;;;;;22.20;100.00;101662.28;2065514;28;20802;-64
2023/06/22 00:47:12;;;;;;;9.57;8.10;;;;;;;21.26;100.00;101524.38;2065331;28;20202;-63
2023/06/22 00:48:14;;;;;;;9.30;8.27;;;;;;;21.92;100.00;101618.69;2065671;28;20670;-63
2023/06/22 00:49:14;;;;;;;9.03;8.13;;;;;;;21.92;100.00;101621.53;2065229;28;20531;-64
2023/06/22 00:50:20;;;;;;;12.27;8.00;;;;;;;22.19;100.00;101672.03;2065522;28;20425;-63
2023/06/22 00:51:24;;;;;;;12.00;8.57;;;;;;;22.11;100.00;101676.50;2064701;28;20162;-64
2023/06/22 00:52:28;;;;;;;10.07;8.73;;;;;;;22.05;100.00;101675.63;2065186;28;20512;-63
2023/06/22 00:53:29;;;;;;;10.07;8.60;;;;;;;22.04;100.00;101676.09;2065923;28;20813;-64
2023/06/22 00:54:30;;;;;;;9.70;8.73;;;;;;;22.03;100.00;101681.00;2065701;28;20452;-63
2023/06/22 00:55:30;;;;;;;10.80;8.07;;;;;;;22.00;100.00;101665.00;2065591;28;20280;-63
2023/06/22 00:56:32;;;;;;;9.13;8.23;;;;;;;22.03;100.00;101674.56;2065083;28;20203;-63
2023/06/22 00:57:32;;;;;;;8.90;8.00;;;;;;;21.96;100.00;101675.72;2064797;28;20198;-63
2023/06/22 00:58:33;;;;;;;8.70;7.83;;;;;;;21.88;100.00;101670.94;2065091;28;20883;-63
2023/06/22 00:59:34;;;;;;;8.13;7.33;;;;;;;21.93;100.00;101675.91;2065547;28;20192;-64
2023/06/22 01:00:34;;;;;;;9.10;7.90;;;;;;;21.63;100.00;101631.97;2065365;28;20178;-63
2023/06/22 01:01:41;;;;;;;10.17;8.07;;;;;;;21.93;100.00;101681.56;2065054;28;20186;-63
2023/06/22 01:02:41;;;;;;;9.37;7.77;;;;;;;21.91;100.00;101673.56;2065381;28;20171;-62
2023/06/22 01:03:41;;;;;;;8.67;7.60;;;;;;;21.87;100.00;101681.47;2065319;28;20958;-63
2023/06/22 01:04:42;;;;;;;8.20;7.40;;;;;;;21.83;100.00;101678.06;2065361;28;20280;-63
2023/06/22 01:05:46;;;;;;;8.63;7.83;;;;;;;21.75;100.00;101665.56;2065617;28;20194;-64
2023/06/22 01:07:04;;;;;;;8.60;7.60;;;;;;;21.45;100.00;101629.31;2065237;28;20220;-63
2023/06/22 01:08:28;;;;;;;7.67;6.97;;;;;;;21.73;100.00;101662.47;2058718;28;20489;-64
2023/06/22 01:09:35;;;;;;;10.07;7.27;;;;;;;21.73;100.00;101653.22;2057455;28;20789;-63
2023/06/22 01:10:38;;;;;;;9.03;7.40;;;;;;;21.75;100.00;101656.34;2065288;28;20484;-63
2023/06/22 01:11:45;;;;;;;8.73;7.70;;;;;;;21.66;100.00;101648.72;2064078;28;20972;-63
2023/06/22 01:12:53;;;;;;;8.80;7.87;;;;;;;21.03;100.00;101549.81;2064933;28;20472;-63
2023/06/22 01:14:10;;;;;;;8.70;7.87;;;;;;;21.73;100.00;101665.28;2072842;28;20444;-62
2023/06/22 01:15:15;;;;;;;10.47;7.70;;;;;;;21.74;100.00;101658.38;2070720;28;21016;-63
2023/06/22 01:16:29;;;;;;;8.13;7.33;;;;;;;21.76;100.00;101660.72;2065482;28;20730;-63
2023/06/22 01:17:31;;;;;;;10.77;7.33;;;;;;;21.75;100.00;101665.56;2064516;28;20197;-63
2023/06/22 01:18:36;;;;;;;9.23;7.70;;;;;;;21.75;100.00;101651.47;2065477;28;20573;-64
2023/06/22 01:19:52;;;;;;;10.37;8.13;;;;;;;21.79;100.00;101660.53;2064983;28;20456;-63
2023/06/22 01:20:57;;;;;;;9.30;8.03;;;;;;;21.39;100.00;101591.78;2065339;28;20451;-63
2023/06/22 01:22:00;;;;;;;10.37;7.47;;;;;;;21.09;100.00;101547.88;2065480;28;20198;-63
2023/06/22 01:23:37;;;;;;;8.73;7.90;;;;;;;21.87;100.00;101649.63;2064627;28;20197;-63
2023/06/22 01:24:38;;;;;;;8.83;7.93;;;;;;;21.79;100.00;101645.63;2065226;28;20483;-63
2023/06/22 01:25:48;;;;;;;8.73;7.60;;;;;;;21.79;100.00;101648.44;2065689;28;20418;-63
2023/06/22 01:26:55;;;;;;;9.90;8.23;;;;;;;21.81;100.00;101651.59;2065683;28;20175;-63
2023/06/22 01:28:14;;;;;;;8.87;7.57;;;;;;;21.82;100.00;101639.81;2065877;28;20876;-64
2023/06/22 01:29:16;;;;;;;8.50;7.73;;;;;;;21.80;100.00;101647.97;2057061;28;20430;-63
2023/06/22 01:30:18;;;;;;;8.97;8.07;;;;;;;21.75;100.00;101647.88;2064942;28;20441;-63
2023/06/22 01:31:22;;;;;;;13.97;9.53;;;;;;;21.07;100.00;101553.19;2072110;28;20441;-64
2023/06/22 01:32:22;;;;;;;9.60;8.53;;;;;;;21.63;100.00;101652.50;2066029;28;20484;-63
2023/06/22 01:33:23;;;;;;;10.43;8.70;;;;;;;21.64;100.00;101656.13;2065265;28;20552;-63
2023/06/22 01:34:24;;;;;;;10.20;8.27;;;;;;;21.10;100.00;101584.03;2065382;28;20205;-64
2023/06/22 01:35:25;;;;;;;8.40;7.60;;;;;;;21.69;100.00;101663.94;2065134;28;20199;-63
2023/06/22 01:36:27;;;;;;;9.17;7.87;;;;;;;21.70;100.00;101660.59;2065092;28;20488;-63
2023/06/22 01:37:29;;;;;;;9.50;8.50;;;;;;;21.74;100.00;101663.25;2065449;28;20504;-63
2023/06/22 01:38:31;;;;;;;10.93;8.43;;;;;;;21.30;100.00;101589.81;2064514;28;20479;-63
2023/06/22 01:39:32;;;;;;;15.23;8.70;;;;;;;21.77;100.00;101671.53;2065020;28;20433;-63
2023/06/22 01:40:34;;;;;;;15.87;9.53;;;;;;;21.79;100.00;101660.53;2065117;28;20433;-64
2023/06/22 01:41:38;;;;;;;15.30;8.50;;;;;;;21.69;100.00;101638.53;2065074;28;20445;-63
2023/06/22 01:42:39;;;;;;;13.90;8.30;;;;;;;21.80;100.00;101656.44;2064854;28;20193;-63
2023/06/22 01:43:40;;;;;;;12.30;8.73;;;;;;;21.82;100.00;101653.94;2072689;28;20287;-64
2023/06/22 01:44:40;;;;;;;10.67;8.20;;;;;;;21.84;100.00;101650.59;2068730;28;20191;-64
2023/06/22 01:45:42;;;;;;;11.33;8.57;;;;;;;21.85;100.00;101646.53;2059794;28;20233;-63
2023/06/22 01:46:43;;;;;;;14.47;8.70;;;;;;;21.84;100.00;101651.38;2063223;28;20226;-63
2023/06/22 01:47:43;;;;;;;11.97;8.87;;;;;;;21.83;100.00;101654.69;2057202;28;20648;-63
2023/06/22 01:48:44;;;;;;;12.10;8.57;;;;;;;21.85;100.00;101655.75;2057433;28;20298;-64
2023/06/22 01:49:45;;;;;;;17.27;8.70;;;;;;;21.86;100.00;101665.00;2064708;28;20240;-63
2023/06/22 01:50:47;;;;;;;11.90;8.83;;;;;;;21.79;100.00;101652.06;2065074;28;20194;-63
2023/06/22 01:51:47;;;;;;;14.97;8.67;;;;;;;21.78;100.00;101658.19;2065099;28;20245;-63
2023/06/22 01:52:48;;;;;;;12.93;8.87;;;;;;;21.71;100.00;101659.38;2064399;28;20205;-63
2023/06/22 01:53:48;;;;;;;14.00;8.50;;;;;;;21.64;100.00;101650.47;2064915;28;20240;-64
2023/06/22 01:54:49;;;;;;;11.57;8.10;;;;;;;20.82;100.00;101531.16;2065158;28;20170;-63
2023/06/22 01:55:49;;;;;;;12.10;7.57;;;;;;;21.71;100.00;101673.47;2065746;28;20189;-63
2023/06/22 01:56:50;;;;;;;9.23;8.03;;;;;;;21.34;100.00;101610.13;2072334;28;20774;-63
2023/06/22 01:57:50;;;;;;;13.17;8.60;;;;;;;21.73;100.00;101679.41;2056347;28;20593;-63
2023/06/22 01:59:11;;;;;;;13.07;8.10;;;;;;;21.29;100.00;101610.03;2063029;28;20238;-63
2023/06/22 02:00:18;;;;;;;16.07;8.63;;;;;;;21.25;100.00;101607.41;2057565;28;20202;-64
2023/06/22 02:01:24;;;;;;;15.03;8.33;;;;;;;21.75;100.00;101676.84;2057265;28;20553;-63
2023/06/22 02:02:31;;;;;;;14.40;8.63;;;;;;;21.74;100.00;101685.84;2064384;28;20337;-63
2023/06/22 02:03:38;;;;;;;21.63;9.00;;;;;;;21.72;100.00;101686.31;2065183;28;20202;-63
2023/06/22 02:04:54;;;;;;;30.13;10.20;;;;;;;21.70;100.00;101705.75;2065219;28;20464;-63
2023/06/22 02:06:10;;;;;;;11.03;7.20;;;;;;;21.66;100.00;101695.88;2065543;28;20166;-63
2023/06/22 02:07:14;;;;;;;9.47;7.10;;;;;;;21.13;100.00;101624.59;2057304;28;20178;-63
2023/06/22 02:08:23;;;;;;;10.97;7.50;;;;;;;21.46;100.00;101701.38;2064288;28;20787;-63
2023/06/22 02:09:28;;;;;;;11.00;7.13;;;;;;;21.48;100.00;101704.50;2064960;28;20445;-63
2023/06/22 02:10:31;;;;;;;10.27;7.63;;;;;;;21.44;100.00;101701.09;2064748;28;20691;-64
2023/06/22 02:11:33;;;;;;;8.87;7.40;;;;;;;21.41;100.00;101707.69;2064786;28;20711;-63
2023/06/22 02:12:35;;;;;;;13.03;7.63;;;;;;;21.13;100.00;101676.06;2064459;28;20194;-63
2023/06/22 02:13:40;;;;;;;9.17;7.37;;;;;;;21.37;100.00;101704.25;2061371;28;20450;-63
2023/06/22 02:14:41;;;;;;;12.80;8.07;;;;;;;21.38;100.00;101705.81;2059922;28;20568;-63
2023/06/22 02:15:42;;;;;;;13.27;8.20;;;;;;;20.53;100.00;101565.59;2064454;28;20417;-64
2023/06/22 02:16:42;;;;;;;15.67;8.60;;;;;;;21.39;100.00;101701.75;2064726;28;20229;-63
2023/06/22 02:17:44;;;;;;;13.67;8.07;;;;;;;20.99;100.00;101636.56;2065372;28;20179;-64
2023/06/22 02:18:52;;;;;;;12.60;8.77;;;;;;;21.38;100.00;101698.16;2064830;28;20194;-63
2023/06/22 02:19:53;;;;;;;12.90;8.13;;;;;;;21.39;100.00;101701.75;2065108;28;20329;-63
2023/06/22 02:20:53;;;;;;;11.63;8.10;;;;;;;21.37;100.00;101701.44;2064570;28;20668;-63
2023/06/22 02:21:54;;;;;;;12.93;8.20;;;;;;;21.37;100.00;101701.44;2064808;28;20262;-63
2023/06/22 02:22:54;;;;;;;13.37;8.23;;;;;;;21.30;100.00;101684.91;2064181;28;20198;-63
2023/06/22 02:23:54;;;;;;;12.50;8.13;;;;;;;21.37;100.00;101698.63;2064697;28;20257;-63
2023/06/22 02:24:56;;;;;;;13.17;7.63;;;;;;;21.35;100.00;101703.97;2064756;28;20182;-63
2023/06/22 02:25:56;;;;;;;15.30;8.37;;;;;;;21.33;100.00;101698.03;2064996;28;20179;-63
2023/06/22 02:26:58;;;;;;;12.87;8.27;;;;;;;21.08;100.00;101676.72;2064838;28;20935;-63
2023/06/22 02:27:58;;;;;;;10.70;8.47;;;;;;;21.34;100.00;101699.59;2065327;28;20664;-63
2023/06/22 02:28:58;;;;;;;10.23;8.10;;;;;;;21.29;100.00;101700.25;2065042;28;20897;-63
2023/06/22 02:29:59;;;;;;;10.23;8.80;;;;;;;21.30;100.00;101701.81;2064862;28;20209;-64
2023/06/22 02:30:59;;;;;;;11.27;7.40;;;;;;;21.29;100.00;101703.06;2063895;28;20198;-63
2023/06/22 02:32:00;;;;;;;11.57;7.80;;;;;;;21.24;100.00;101704.50;2065037;28;20197;-63
2023/06/22 02:33:00;;;;;;;14.70;8.13;;;;;;;21.23;100.00;101705.00;2064323;28;20194;-63
2023/06/22 02:34:01;;;;;;;20.27;8.63;;;;;;;21.22;100.00;101703.41;2063450;28;20194;-62
2023/06/22 02:35:04;;;;;;;18.67;9.37;;;;;;;21.22;100.00;101700.59;2057066;28;20219;-63
2023/06/22 02:36:08;;;;;;;18.10;9.20;;;;;;;21.21;100.00;101696.22;2065123;28;20289;-63
2023/06/22 02:37:10;;;;;;;21.60;8.67;;;;;;;21.20;100.00;101701.09;2064975;28;20958;-63
2023/06/22 02:38:11;;;;;;;22.67;9.70;;;;;;;21.19;100.00;101707.97;2057902;28;20488;-63
2023/06/22 02:39:11;;;;;;;18.97;9.47;;;;;;;21.19;100.00;101704.41;2062855;28;20994;-63
2023/06/22 02:40:12;;;;;;;19.40;9.90;;;;;;;21.17;100.00;101707.69;2064951;28;20194;-62
2023/06/22 02:41:14;;;;;;;17.97;9.63;;;;;;;21.08;100.00;101690.81;2064865;28;20222;-63
2023/06/22 02:42:15;;;;;;;16.47;9.57;;;;;;;21.12;100.00;101707.56;2064632;28;20552;-63
2023/06/22 02:43:15;;;;;;;21.43;9.27;;;;;;;21.03;100.00;101714.03;2063915;28;20553;-63
2023/06/22 02:44:16;;;;;;;15.83;9.20;;;;;;;20.36;100.00;101614.38;2064807;28;20536;-63
2023/06/22 02:45:16;;;;;;;16.80;9.63;;;;;;;21.02;100.00;101709.66;2065042;28;20178;-63
2023/06/22 02:46:17;;;;;;;13.77;9.43;;;;;;;21.02;100.00;101717.31;2064547;28;20194;-63
2023/06/22 02:47:17;;;;;;;17.17;9.23;;;;;;;21.02;100.00;101711.69;2064700;28;20684;-63
2023/06/22 02:48:18;;;;;;;20.43;9.70;;;;;;;21.05;100.00;101716.38;2064632;28;20224;-63
2023/06/22 02:49:18;;;;;;;16.77;9.07;;;;;;;21.03;100.00;101713.25;2060659;28;20681;-63
2023/06/22 02:50:18;;;;;;;17.07;9.23;;;;;;;21.05;100.00;101708.72;2059751;28;20245;-63
2023/06/22 02:51:19;;;;;;;13.57;8.70;;;;;;;21.06;100.00;101721.53;2064420;28;20182;-63
2023/06/22 02:52:19;;;;;;;16.63;9.10;;;;;;;21.05;100.00;101716.38;2064089;28;20186;-63
2023/06/22 02:53:20;;;;;;;14.87;9.13;;;;;;;21.07;100.00;101711.03;2072362;28;20185;-62
2023/06/22 02:54:21;;;;;;;14.73;9.57;;;;;;;21.11;100.00;101725.72;2072549;28;20656;-63
2023/06/22 02:55:21;;;;;;;10.93;9.03;;;;;;;21.11;100.00;101722.91;2063205;28;20496;-62
2023/06/22 02:56:24;;;;;;;13.10;8.90;;;;;;;21.10;100.00;101722.16;2064809;28;20214;-63
2023/06/22 02:57:25;;;;;;;11.63;8.90;;;;;;;21.11;100.00;101720.09;2064355;28;20194;-63
2023/06/22 02:58:25;;;;;;;10.30;8.37;;;;;;;21.10;100.00;101710.88;2064438;28;20490;-64
2023/06/22 02:59:26;;;;;;;10.80;9.27;;;;;;;21.09;100.00;101709.28;2064475;28;20178;-63
2023/06/22 03:00:30;;;;;;;12.53;9.03;;;;;;;21.07;100.00;101709.00;2064290;28;20174;-63
2023/06/22 03:01:30;;;;;;;12.00;8.67;;;;;;;21.06;100.00;101710.25;2064624;28;20182;-63
2023/06/22 03:02:31;;;;;;;10.57;9.10;;;;;;;21.07;100.00;101711.81;2064542;28;20461;-63
2023/06/22 03:03:31;;;;;;;11.23;8.67;;;;;;;21.04;100.00;101717.63;2064719;28;20202;-63
2023/06/22 03:04:32;;;;;;;12.93;9.00;;;;;;;20.32;100.00;101600.44;2064391;28;20292;-63
2023/06/22 03:05:32;;;;;;;13.67;8.33;;;;;;;21.03;100.00;101722.50;2070077;28;20560;-63
2023/06/22 03:06:33;;;;;;;10.03;8.53;;;;;;;20.62;100.00;101661.31;2068538;28;20226;-62
2023/06/22 03:07:34;;;;;;;8.93;8.00;;;;;;;20.95;100.00;101709.22;2064483;28;20734;-63
2023/06/22 03:08:34;;;;;;;9.93;8.90;;;;;;;20.97;100.00;101715.94;2064532;28;20852;-63
2023/06/22 03:09:34;;;;;;;10.77;8.90;;;;;;;20.97;100.00;101717.97;2064293;28;20626;-63
2023/06/22 03:10:35;;;;;;;14.20;8.97;;;;;;;20.89;100.00;101702.66;2064803;28;20186;-64
2023/06/22 03:11:35;;;;;;;9.03;7.80;;;;;;;20.78;100.00;101702.41;2064498;28;20225;-63
2023/06/22 03:12:37;;;;;;;11.03;8.37;;;;;;;20.91;100.00;101706.59;2064183;28;20191;-64
2023/06/22 03:13:38;;;;;;;12.60;8.53;;;;;;;21.00;100.00;101726.28;2064432;28;20671;-63
2023/06/22 03:14:38;;;;;;;13.57;8.63;;;;;;;21.01;100.00;101724.22;2064365;28;20878;-63
2023/06/22 03:15:39;;;;;;;9.63;8.37;;;;;;;20.53;100.00;101652.91;2064225;28;20616;-63
2023/06/22 03:16:40;;;;;;;11.87;8.03;;;;;;;21.05;100.00;101731.25;2064670;28;20186;-63
2023/06/22 03:17:41;;;;;;;10.77;8.93;;;;;;;21.03;100.00;101724.53;2064322;28;20170;-63
2023/06/22 03:18:41;;;;;;;13.00;8.60;;;;;;;21.06;100.00;101718.72;2064502;28;20931;-63
2023/06/22 03:19:42;;;;;;;12.00;8.90;;;;;;;21.04;100.00;101715.59;2064701;28;20178;-64
2023/06/22 03:20:42;;;;;;;10.20;9.17;;;;;;;21.03;100.00;101716.84;2064615;28;20553;-63
2023/06/22 03:21:43;;;;;;;11.93;9.17;;;;;;;21.03;100.00;101713.25;2064535;28;20201;-63
2023/06/22 03:22:43;;;;;;;11.00;8.70;;;;;;;21.02;100.00;101720.13;2063969;28;20873;-63
2023/06/22 03:23:44;;;;;;;10.27;9.13;;;;;;;21.00;100.00;101720.63;2064683;28;20225;-63
2023/06/22 03:24:44;;;;;;;17.93;10.13;;;;;;;20.94;100.00;101699.97;2064486;28;20865;-64
2023/06/22 03:25:44;;;;;;;13.17;10.17;;;;;;;20.96;100.00;101697.47;2064358;28;20258;-63
2023/06/22 03:26:46;;;;;;;12.20;10.03;;;;;;;21.08;100.00;101707.75;2064225;28;20959;-63
2023/06/22 03:27:48;;;;;;;17.17;10.60;;;;;;;21.08;100.00;101710.56;2064680;28;20617;-63
2023/06/22 03:28:48;;;;;;;15.60;10.10;;;;;;;21.04;100.00;101712.75;2056730;28;20454;-63
2023/06/22 03:29:48;;;;;;;13.73;10.23;;;;;;;21.05;100.00;101710.75;2062958;28;21013;-63
2023/06/22 03:30:49;;;;;;;12.03;10.67;;;;;;;21.09;100.00;101714.16;2063312;28;20272;-63
2023/06/22 03:31:49;;;;;;;12.97;10.43;;;;;;;21.09;100.00;101714.16;2063862;28;20194;-63
2023/06/22 03:32:50;;;;;;;14.53;10.73;;;;;;;21.14;100.00;101716.34;2063890;28;20194;-63
2023/06/22 03:33:50;;;;;;;13.37;10.47;;;;;;;21.14;100.00;101707.88;2063935;28;20240;-63
2023/06/22 03:34:51;;;;;;;13.53;10.77;;;;;;;21.16;100.00;101714.59;2063338;28;20188;-63
2023/06/22 03:35:51;;;;;;;15.40;10.67;;;;;;;21.17;100.00;101706.91;2064559;28;20205;-63
2023/06/22 03:36:52;;;;;;;12.00;10.60;;;;;;;21.17;100.00;101715.34;2064471;28;20193;-63
2023/06/22 03:37:52;;;;;;;14.93;9.17;;;;;;;20.73;100.00;101649.53;2064329;28;20197;-63
2023/06/22 03:38:52;;;;;;;15.07;9.87;;;;;;;21.23;100.00;101717.03;2063764;28;20325;-63
2023/06/22 03:39:53;;;;;;;15.23;10.17;;;;;;;21.25;100.00;101720.19;2063537;28;20707;-62
2023/06/22 03:40:54;;;;;;;18.10;10.47;;;;;;;21.20;100.00;101706.75;2064050;28;20616;-63
2023/06/22 03:41:54;;;;;;;15.10;9.87;;;;;;;21.32;100.00;101719.81;2064402;28;20174;-63
2023/06/22 03:42:55;;;;;;;14.10;10.47;;;;;;;21.37;100.00;101718.34;2071064;28;20181;-63
2023/06/22 03:43:56;;;;;;;15.60;10.20;;;;;;;21.34;100.00;101703.19;2072241;28;20184;-64
2023/06/22 03:44:56;;;;;;;15.77;10.23;;;;;;;21.48;100.00;101721.41;2064300;28;20201;-63
2023/06/22 03:45:56;;;;;;;14.23;9.37;;;;;;;21.50;100.00;101710.44;2064463;28;20260;-63
2023/06/22 03:46:57;;;;;;;14.60;9.33;;;;;;;21.54;100.00;101716.69;2061746;28;20242;-63
2023/06/22 03:47:57;;;;;;;14.13;9.53;;;;;;;21.49;100.00;101694.78;2064672;28;20190;-63
2023/06/22 03:48:58;;;;;;;15.40;10.03;;;;;;;21.42;100.00;101684.66;2060614;28;20242;-64
2023/06/22 03:49:58;;;;;;;18.60;10.53;;;;;;;21.60;100.00;101715.50;2056482;28;20241;-64
2023/06/22 03:50:59;;;;;;;22.90;10.90;;;;;;;21.64;100.00;101709.72;2056946;28;20187;-63
2023/06/22 03:52:04;;;;;;;15.67;9.80;;;;;;;21.67;100.00;101717.97;2064261;28;20602;-64
2023/06/22 03:53:04;;;;;;;13.13;9.63;;;;;;;21.72;100.00;101717.34;2056115;28;20433;-63
2023/06/22 03:54:05;;;;;;;11.20;9.17;;;;;;;21.78;100.00;101728.72;2063884;28;20982;-63
2023/06/22 03:55:06;;;;;;;19.13;9.70;;;;;;;21.82;100.00;101726.50;2064160;28;20201;-63
2023/06/22 03:56:07;;;;;;;10.40;9.23;;;;;;;21.45;100.00;101663.94;2064294;28;20203;-63
2023/06/22 03:57:07;;;;;;;11.97;9.03;;;;;;;21.82;100.00;101720.84;2060927;28;20500;-63
2023/06/22 03:58:09;;;;;;;15.97;9.70;;;;;;;21.65;100.00;101694.34;2059446;28;20277;-63
2023/06/22 03:59:09;;;;;;;13.17;9.67;;;;;;;21.86;100.00;101724.28;2064311;28;20185;-63
2023/06/22 04:00:11;;;;;;;11.10;9.90;;;;;;;21.90;100.00;101727.69;2064176;28;20453;-62
2023/06/22 04:01:11;;;;;;;12.53;11.20;;;;;;;21.89;100.00;101729.72;2064307;28;20265;-63
2023/06/22 04:02:11;;;;;;;11.90;10.60;;;;;;;21.89;100.00;101738.19;2063085;28;20445;-63
2023/06/22 04:03:13;;;;;;;13.60;10.50;;;;;;;21.88;100.00;101736.63;2063176;28;20202;-64
2023/06/22 04:04:13;;;;;;;12.83;11.53;;;;;;;21.90;100.00;101734.09;2063822;28;20651;-63
2023/06/22 04:05:14;;;;;;;12.17;10.70;;;;;;;21.92;100.00;101733.63;2063345;28;20586;-63
2023/06/22 04:06:14;;;;;;;13.13;10.60;;;;;;;21.96;100.00;101732.16;2062227;28;20334;-63
2023/06/22 04:07:14;;;;;;;12.60;10.83;;;;;;;21.93;100.00;101727.50;2063373;28;20179;-63
2023/06/22 04:08:15;;;;;;;15.73;10.80;;;;;;;21.99;100.00;101744.53;2063310;28;20677;-63
2023/06/22 04:09:16;;;;;;;20.10;11.43;;;;;;;21.94;100.00;101723.41;2063529;28;20252;-63
2023/06/22 04:10:16;;;;;;;18.67;11.17;;;;;;;21.73;100.00;101682.22;2064056;28;20186;-63
2023/06/22 04:11:18;;;;;;;17.20;11.03;;;;;;;22.03;100.00;101728.19;2062681;28;20190;-64
2023/06/22 04:12:18;;;;;;;13.03;10.37;;;;;;;22.07;100.00;101734.44;2062895;28;20194;-64
2023/06/22 04:13:19;;;;;;;16.60;10.67;;;;;;;22.08;100.00;101735.97;2062871;28;20186;-62
2023/06/22 04:14:19;;;;;;;15.10;11.00;;;;;;;22.11;100.00;101738.59;2063567;28;20189;-64
2023/06/22 04:15:20;;;;;;;12.60;10.37;;;;;;;22.13;100.00;101740.94;2063213;28;20190;-63
2023/06/22 04:16:20;;;;;;;17.93;11.33;;;;;;;22.10;100.00;101733.47;2063503;28;20202;-63
2023/06/22 04:17:21;;;;;;;12.07;10.87;;;;;;;22.14;100.00;101739.69;2062987;28;20182;-63
2023/06/22 04:18:21;;;;;;;15.73;11.13;;;;;;;22.15;100.00;101741.25;2064362;28;20678;-63
2023/06/22 04:19:22;;;;;;;13.07;11.13;;;;;;;22.16;100.00;101743.56;2063381;28;20193;-63
2023/06/22 04:20:25;;;;;;;13.93;11.80;;;;;;;22.17;100.00;101742.34;2062342;28;20584;-63
2023/06/22 04:21:26;;;;;;;13.30;11.57;;;;;;;22.14;100.00;101746.13;2062738;28;20190;-63
2023/06/22 04:22:26;;;;;;;16.70;12.10;;;;;;;21.59;100.00;101656.78;2062314;28;20202;-63
2023/06/22 04:23:26;;;;;;;14.87;11.30;;;;;;;22.16;100.00;101751.28;2062333;28;20205;-63
2023/06/22 04:24:27;;;;;;;15.27;11.23;;;;;;;22.16;100.00;101752.03;2060980;28;20265;-63
2023/06/22 04:25:27;;;;;;;17.93;11.83;;;;;;;22.20;100.00;101746.19;2063227;28;20198;-63
2023/06/22 04:26:28;;;;;;;16.83;11.00;;;;;;;22.21;100.00;101744.97;2064005;28;20183;-63
2023/06/22 04:27:28;;;;;;;13.47;10.90;;;;;;;22.26;100.00;101759.16;2062617;28;20550;-63
2023/06/22 04:28:28;;;;;;;16.77;11.37;;;;;;;22.29;100.00;101746.91;2063803;28;20644;-63
2023/06/22 04:29:30;;;;;;;13.50;11.57;;;;;;;21.75;100.00;101667.63;2063752;28;20573;-63
2023/06/22 04:30:33;;;;;;;15.33;11.37;;;;;;;22.31;100.00;101750.00;2063228;28;20285;-63
2023/06/22 04:31:36;;;;;;;14.07;10.90;;;;;;;22.33;100.00;101749.53;2062685;28;20277;-63
2023/06/22 04:32:36;;;;;;;12.77;11.40;;;;;;;22.40;100.00;101752.75;2061894;28;20274;-64
2023/06/22 04:33:40;;;;;;;18.03;11.80;;;;;;;22.46;100.00;101755.72;2062857;28;20193;-62
2023/06/22 04:34:41;;;;;;;14.73;11.70;;;;;;;21.87;100.00;101660.91;2062548;28;20564;-64
2023/06/22 04:35:44;;;;;;;16.50;11.77;;;;;;;22.46;100.00;101773.41;2063401;28;20190;-64
2023/06/22 04:36:45;;;;;;;16.27;11.53;;;;;;;22.46;100.00;101761.38;2063254;28;20190;-63
2023/06/22 04:37:45;;;;;;;18.77;12.13;;;;;;;22.43;100.00;101776.41;2061573;28;20198;-63
2023/06/22 04:38:46;;;;;;;28.13;13.07;;;;;;;22.25;100.00;101766.09;2062298;28;20195;-63
2023/06/22 04:39:47;;;;;;;17.00;12.43;;;;;;;22.31;100.00;101781.06;2062500;28;20199;-63
2023/06/22 04:40:47;;;;;;;16.10;12.80;;;;;;;22.27;100.00;101786.13;2063104;28;20198;-63
2023/06/22 04:41:47;;;;;;;14.53;12.20;;;;;;;22.28;100.00;101787.72;2063480;28;20265;-63